CZUM/ZUM METAR and TAF weather

Enter ICAO airport designator
Station Type Date Time Source
CZUM METAR 2020/01/22 15:23 UTC NOAA

CZUM 221523Z AUTO 14003KT 9SM -SN OVC040 M19/M22 A3005 RMK SLP228


Station Type Date Time Source
CZUM Decoded METAR 2020/01/22 15:23 UTC NOAA

Churchill Falls, Nfld., Canada (CZUM) 53-33N 064-06W 440M
Jan 22, 2020 - 10:23 AM EST / 2020.01.22 1523 UTC
Wind: from the SE (140 degrees) at 3 MPH (3 KT):0
Visibility: 9 mile(s):0
Sky conditions: overcast
Weather: light snow
Temperature: -2 F (-19 C)
Dew Point: -7 F (-22 C)
Relative Humidity: 77%
Pressure (altimeter): 30.05 in. Hg (1017 hPa)
ob: CZUM 221523Z AUTO 14003KT 9SM -SN OVC040 M19/M22 A3005 RMK SLP228
cycle: 15

Station Type Date Time Source
CZUM TAF 2020/01/22 14:39 UTC NOAA

TAF CZUM 221338Z 2214/2302 12005KT P6SM OVC040
TEMPO 2214/2224 5SM -SN
FM230000 18010KT 6SM -SN OVC030
TEMPO 2300/2302 2SM -SN OVC020
RMK FCST BASED ON AUTO OBS. NXT FCST BY 222000Z

Example: see airport list